This is the latest recevied weather packets stored in our database for station/object KE2A-13. If no packets are shown the sender has not sent any weather packets the latest 1 day(s).
| Time | Temp. | Humidity | Pressure | Rain* | Wind** | Luminosity | Snow |
|---|---|---|---|---|---|---|---|
| 1778035500 | 20° C | 61% | 1009.6 hPa | 1.52 mm | 0.45 m/s, 233° | - | - |
| 1778034600 | 20° C | 61% | 1009.8 hPa | 1.52 mm | 0 m/s | - | - |
| 1778033700 | 19.44° C | 61% | 1009.7 hPa | 1.52 mm | 0.45 m/s, 207° | - | - |
| 1778032800 | 19.44° C | 62% | 1009.6 hPa | 1.52 mm | 0 m/s | - | - |
| 1778031900 | 19.44° C | 63% | 1009.6 hPa | 1.52 mm | 0 m/s | - | - |
| 1778031000 | 20.56° C | 60% | 1009.3 hPa | 1.52 mm | 0 m/s | - | - |
| 1778030100 | 21.11° C | 57% | 1009 hPa | 1.52 mm | 0.45 m/s, 331° | - | - |
| 1778029200 | 22.22° C | 52% | 1008.8 hPa | 1.52 mm | 0 m/s | - | - |
| 1778028300 | 23.89° C | 45% | 1008.5 hPa | 1.52 mm | 0.45 m/s, 207° | - | - |
| 1778027400 | 23.89° C | 42% | 1008.3 hPa | 1.52 mm | 0.45 m/s, 217° | - | - |
| 1778026500 | 24.44° C | 41% | 1008.2 hPa | 1.52 mm | 0 m/s | - | - |
| 1778025600 | 25° C | 38% | 1008 hPa | 1.52 mm | 0.45 m/s, 153° | - | - |
| 1778024700 | 25° C | 37% | 1007.8 hPa | 1.52 mm | 1.34 m/s, 192° | - | - |
| 1778023800 | 25.56° C | 35% | 1007.7 hPa | 1.52 mm | 1.34 m/s, 190° | - | - |
| 1778022900 | 26.11° C | 34% | 1007.5 hPa | 1.52 mm | 0.89 m/s, 173° | - | - |
| 1778022000 | 26.67° C | 34% | 1007.2 hPa | 1.52 mm | 1.34 m/s, 131° | - | - |
| 1778021100 | 26.67° C | 33% | 1006.9 hPa | 1.52 mm | 1.79 m/s, 137° | - | - |
| 1778020200 | 26.67° C | 33% | 1007 hPa | 1.52 mm | 1.34 m/s, 141° | - | - |
| 1778019300 | 27.22° C | 34% | 1006.9 hPa | 1.52 mm | 2.24 m/s, 174° | - | - |
| 1778018400 | 27.22° C | 34% | 1007 hPa | 1.52 mm | 1.79 m/s, 133° | - | - |
| 1778017500 | 27.22° C | 33% | 1006.9 hPa | 1.52 mm | 1.34 m/s, 193° | - | - |
| 1778016600 | 27.22° C | 35% | 1006.5 hPa | 1.52 mm | 0.89 m/s, 272° | - | - |
| 1778015700 | 26.67° C | 37% | 1006.5 hPa | 1.52 mm | 0.89 m/s, 183° | - | - |
| 1778014800 | 25.56° C | 37% | 1006.4 hPa | 1.52 mm | 1.79 m/s, 183° | - | - |
| 1778013900 | 25° C | 46% | 1006.7 hPa | 1.52 mm | 0.89 m/s, 238° | - | - |
* Rain since midnight (hover to see other rain measurements)
** Current wind speed in m/s (hover to see current wind gust speed)